createdAt,value
2023-02-02T00:01:34.163Z,6.00
2023-02-02T00:04:02.557Z,6.00
2023-02-02T00:06:32.278Z,6.00
2023-02-02T00:09:02.887Z,6.00
2023-02-02T00:11:31.161Z,6.00
2023-02-02T00:14:01.038Z,6.00
2023-02-02T00:16:45.260Z,6.00
2023-02-02T00:19:15.872Z,6.00
2023-02-02T00:21:44.738Z,6.00
2023-02-02T00:24:15.450Z,5.90
2023-02-02T00:26:45.026Z,5.90
2023-02-02T00:29:17.080Z,5.90
2023-02-02T00:31:46.792Z,5.90
2023-02-02T00:34:16.462Z,5.90
2023-02-02T00:36:45.644Z,5.90
2023-02-02T00:39:17.562Z,5.90
2023-02-02T00:41:45.951Z,5.90
2023-02-02T00:44:31.809Z,5.90
2023-02-02T00:47:01.693Z,5.90
2023-02-02T00:49:30.175Z,5.80
2023-02-02T00:51:59.183Z,5.80
2023-02-02T00:54:28.185Z,5.70
2023-02-02T00:56:56.433Z,5.80
2023-02-02T00:59:24.712Z,5.70
2023-02-02T01:01:53.036Z,5.70
2023-02-02T01:04:22.786Z,5.70
2023-02-02T01:06:51.096Z,5.60
2023-02-02T01:09:19.588Z,5.60
2023-02-02T01:11:47.922Z,5.60
2023-02-02T01:14:16.194Z,5.60
2023-02-02T01:16:44.617Z,5.50
2023-02-02T01:19:14.605Z,5.50
2023-02-02T01:21:44.819Z,5.50
2023-02-02T01:24:13.325Z,5.50
2023-02-02T01:26:41.741Z,5.50
2023-02-02T01:29:10.302Z,5.50
2023-02-02T01:31:38.661Z,5.50
2023-02-02T01:34:06.989Z,5.50
2023-02-02T01:36:35.331Z,5.50
2023-02-02T01:39:05.486Z,5.50
2023-02-02T01:41:33.857Z,5.50
2023-02-02T01:44:04.102Z,5.50
2023-02-02T01:46:33.996Z,5.50
2023-02-02T01:49:07.867Z,5.50
2023-02-02T01:51:43.513Z,5.50
2023-02-02T01:54:22.114Z,5.50
2023-02-02T01:56:55.164Z,5.50
2023-02-02T01:59:23.944Z,5.50
2023-02-02T02:01:55.032Z,5.50
2023-02-02T02:04:25.324Z,5.50
2023-02-02T02:06:53.905Z,5.50
2023-02-02T02:09:23.787Z,5.40
2023-02-02T02:11:54.940Z,5.40
2023-02-02T02:14:41.878Z,5.40
2023-02-02T02:17:32.426Z,5.40
2023-02-02T02:20:51.856Z,5.30
2023-02-02T02:24:10.031Z,5.30
2023-02-02T02:26:58.832Z,5.30
2023-02-02T02:29:59.653Z,5.30
2023-02-02T02:32:37.422Z,5.30
2023-02-02T02:35:10.894Z,5.30
2023-02-02T02:37:47.635Z,5.30
2023-02-02T02:40:23.711Z,5.30
2023-02-02T02:42:58.053Z,5.30
2023-02-02T02:45:28.636Z,5.30
2023-02-02T02:47:58.413Z,5.20
2023-02-02T02:50:26.729Z,5.20
2023-02-02T02:53:00.215Z,5.30
2023-02-02T02:55:37.369Z,5.20
2023-02-02T02:58:10.647Z,5.20
2023-02-02T03:00:47.962Z,5.20
2023-02-02T03:03:29.277Z,5.10
2023-02-02T03:06:06.139Z,5.10
2023-02-02T03:08:40.079Z,5.10
2023-02-02T03:11:10.908Z,5.20
2023-02-02T03:13:39.603Z,5.20
2023-02-02T03:16:08.314Z,5.10
2023-02-02T03:18:38.455Z,5.20
2023-02-02T03:21:07.099Z,5.10
2023-02-02T03:23:35.932Z,5.10
2023-02-02T03:26:05.084Z,5.10
2023-02-02T03:28:34.411Z,5.10
2023-02-02T03:31:03.763Z,5.10
2023-02-02T03:33:33.626Z,5.10
2023-02-02T03:36:03.407Z,5.00
2023-02-02T03:38:34.320Z,5.00
2023-02-02T03:41:02.839Z,5.00
2023-02-02T03:43:31.123Z,4.90
2023-02-02T03:46:00.448Z,5.00
2023-02-02T03:48:28.919Z,4.90
2023-02-02T03:50:57.415Z,4.90
2023-02-02T03:53:27.159Z,4.90
2023-02-02T03:55:55.511Z,5.00
2023-02-02T03:58:23.885Z,5.00
2023-02-02T04:00:52.181Z,5.00
2023-02-02T04:03:20.469Z,5.00
2023-02-02T04:05:51.352Z,5.10
2023-02-02T04:08:19.662Z,5.10
2023-02-02T04:10:49.460Z,5.10
2023-02-02T04:13:17.802Z,5.10
2023-02-02T04:15:46.116Z,5.10
2023-02-02T04:18:14.985Z,5.20
2023-02-02T04:20:43.256Z,5.10
2023-02-02T04:23:11.578Z,5.20
2023-02-02T04:25:39.852Z,5.20
2023-02-02T04:28:09.559Z,5.20
2023-02-02T04:30:37.889Z,5.20
2023-02-02T04:33:06.207Z,5.30
2023-02-02T04:35:34.536Z,5.20
2023-02-02T04:38:02.815Z,5.30
2023-02-02T04:40:31.158Z,5.30
2023-02-02T04:42:59.499Z,5.30
2023-02-02T04:45:29.183Z,5.40
2023-02-02T04:47:57.504Z,5.40
2023-02-02T04:50:25.905Z,5.40
2023-02-02T04:52:54.292Z,5.40
2023-02-02T04:55:22.900Z,5.40
2023-02-02T04:57:51.541Z,5.30
2023-02-02T05:00:20.272Z,5.30
2023-02-02T05:02:49.996Z,5.20
2023-02-02T05:05:18.311Z,5.30
2023-02-02T05:07:46.599Z,5.20
2023-02-02T05:10:14.854Z,5.20
2023-02-02T05:12:43.200Z,5.20
2023-02-02T05:15:12.532Z,5.20
2023-02-02T05:17:40.835Z,5.10
2023-02-02T05:20:12.087Z,5.10
2023-02-02T05:22:40.578Z,5.00
2023-02-02T05:25:10.130Z,5.00
2023-02-02T05:27:39.091Z,5.00
2023-02-02T05:30:08.739Z,5.00
2023-02-02T05:32:40.026Z,5.00
2023-02-02T05:35:11.320Z,5.00
2023-02-02T05:37:39.725Z,5.00
2023-02-02T05:40:08.932Z,5.00
2023-02-02T05:42:37.237Z,5.00
2023-02-02T05:45:06.515Z,5.00
2023-02-02T05:47:35.748Z,5.00
2023-02-02T05:50:04.139Z,5.00
2023-02-02T05:52:36.649Z,5.00
2023-02-02T05:55:05.595Z,5.10
2023-02-02T05:57:34.042Z,5.00
2023-02-02T06:00:05.047Z,5.00
2023-02-02T06:02:33.327Z,5.10
2023-02-02T06:05:01.842Z,5.10
2023-02-02T06:07:30.159Z,5.10
2023-02-02T06:09:59.890Z,5.10
2023-02-02T06:12:28.140Z,5.10
2023-02-02T06:14:56.451Z,5.10
2023-02-02T06:17:24.823Z,5.20
2023-02-02T06:19:53.254Z,5.20
2023-02-02T06:22:21.627Z,5.20
2023-02-02T06:24:49.910Z,5.20
2023-02-02T06:27:19.688Z,5.20
2023-02-02T06:29:48.003Z,5.20
2023-02-02T06:32:22.291Z,5.30
2023-02-02T06:34:51.142Z,5.30
2023-02-02T06:37:19.585Z,5.40
2023-02-02T06:39:53.370Z,5.40
2023-02-02T06:42:23.105Z,5.40
2023-02-02T06:44:51.351Z,5.50
2023-02-02T06:47:19.565Z,5.50
2023-02-02T06:49:47.869Z,5.50
2023-02-02T06:52:16.147Z,5.60
2023-02-02T06:54:44.470Z,5.60
2023-02-02T06:57:12.737Z,5.70
2023-02-02T06:59:43.080Z,5.70
2023-02-02T07:02:13.300Z,5.70
2023-02-02T07:04:41.648Z,5.80
2023-02-02T07:07:09.988Z,5.80
2023-02-02T07:09:38.412Z,5.80
2023-02-02T07:12:09.867Z,5.80
2023-02-02T07:14:40.950Z,5.80
2023-02-02T07:17:11.292Z,5.80
2023-02-02T07:19:39.874Z,5.80
2023-02-02T07:22:08.124Z,5.90
2023-02-02T07:24:38.222Z,5.90
2023-02-02T07:27:06.674Z,5.90
2023-02-02T07:29:34.962Z,5.80
2023-02-02T07:32:03.205Z,5.80
2023-02-02T07:34:32.967Z,5.90
2023-02-02T07:37:01.332Z,6.00
2023-02-02T07:39:29.629Z,5.90
2023-02-02T07:41:57.940Z,6.00
2023-02-02T07:44:27.376Z,6.00
2023-02-02T07:46:56.023Z,6.00
2023-02-02T07:49:24.329Z,6.10
2023-02-02T07:51:55.023Z,6.20
2023-02-02T07:54:23.991Z,6.30
2023-02-02T07:56:52.343Z,6.30
2023-02-02T07:59:20.699Z,6.40
2023-02-02T08:01:49.078Z,6.40
2023-02-02T08:04:17.429Z,6.50
2023-02-02T08:06:45.867Z,6.60
2023-02-02T08:09:17.058Z,6.70
2023-02-02T08:11:45.380Z,6.80
2023-02-02T08:14:15.087Z,6.90
2023-02-02T08:16:45.539Z,7.10
2023-02-02T08:19:13.926Z,7.20
2023-02-02T08:21:42.274Z,7.20
2023-02-02T08:24:10.604Z,7.30
2023-02-02T08:26:40.340Z,7.30
2023-02-02T08:29:10.163Z,7.40
2023-02-02T08:31:41.887Z,7.40
2023-02-02T08:34:10.700Z,7.40
2023-02-02T08:36:39.304Z,7.50
2023-02-02T08:39:09.973Z,7.60
2023-02-02T08:41:39.838Z,7.60
2023-02-02T08:44:10.872Z,7.60
2023-02-02T08:46:39.708Z,7.60
2023-02-02T08:49:08.264Z,7.60
2023-02-02T08:51:36.627Z,7.60
2023-02-02T08:54:05.020Z,7.60
2023-02-02T08:56:33.378Z,7.70
2023-02-02T08:59:05.393Z,7.70
2023-02-02T09:01:34.811Z,7.70
2023-02-02T09:04:05.225Z,7.80
2023-02-02T09:06:35.835Z,7.70
2023-02-02T09:09:05.760Z,7.80
2023-02-02T09:11:34.330Z,7.80
2023-02-02T09:14:06.537Z,7.70
2023-02-02T09:16:36.621Z,7.80
2023-02-02T09:19:05.319Z,7.80
2023-02-02T09:21:37.381Z,7.80
2023-02-02T09:24:09.268Z,7.80
2023-02-02T09:26:38.827Z,7.90
2023-02-02T09:29:12.166Z,7.90
2023-02-02T09:31:41.178Z,7.90
2023-02-02T09:34:11.110Z,7.90
2023-02-02T09:36:40.623Z,7.90
2023-02-02T09:39:09.423Z,8.00
2023-02-02T09:42:13.211Z,8.00
2023-02-02T09:45:07.013Z,8.10
2023-02-02T09:47:55.498Z,8.20
2023-02-02T09:50:47.107Z,8.30
2023-02-02T09:53:22.223Z,8.40
2023-02-02T09:55:52.820Z,8.50
2023-02-02T09:58:26.211Z,8.60
2023-02-02T10:01:04.256Z,8.60
2023-02-02T10:03:38.158Z,8.70
2023-02-02T10:06:17.474Z,8.80
2023-02-02T10:08:50.015Z,8.90
2023-02-02T10:11:32.018Z,8.90
2023-02-02T10:14:04.583Z,8.90
2023-02-02T10:16:37.623Z,8.90
2023-02-02T10:19:10.602Z,8.90
2023-02-02T10:21:46.782Z,9.00
2023-02-02T10:24:19.981Z,9.00
2023-02-02T10:26:50.013Z,9.00
2023-02-02T10:29:20.396Z,9.00
2023-02-02T10:32:04.230Z,9.00
2023-02-02T10:34:37.822Z,9.00
2023-02-02T10:37:22.496Z,9.10
2023-02-02T10:40:14.841Z,9.10
2023-02-02T10:43:10.847Z,9.10
2023-02-02T10:45:43.053Z,9.00
2023-02-02T10:48:17.697Z,8.90
2023-02-02T10:50:52.075Z,8.90
2023-02-02T10:53:26.601Z,8.90
2023-02-02T10:55:59.543Z,8.90
2023-02-02T10:58:31.673Z,8.90
2023-02-02T11:01:01.487Z,8.80
2023-02-02T11:03:33.740Z,8.80
2023-02-02T11:06:21.701Z,8.80
2023-02-02T11:08:56.743Z,8.80
2023-02-02T11:11:27.588Z,8.80
2023-02-02T11:14:00.379Z,8.80
2023-02-02T11:16:42.148Z,8.80
2023-02-02T11:19:29.779Z,8.80
2023-02-02T11:21:59.606Z,8.80
2023-02-02T11:24:30.270Z,8.70
2023-02-02T11:27:03.127Z,8.80
2023-02-02T11:29:37.322Z,8.70
2023-02-02T11:32:27.820Z,8.70
2023-02-02T11:35:19.055Z,8.80
2023-02-02T11:38:01.178Z,8.70
2023-02-02T11:40:33.343Z,8.80
2023-02-02T11:43:04.706Z,8.70
2023-02-02T11:45:36.659Z,8.60
2023-02-02T11:48:08.958Z,8.60
2023-02-02T11:50:38.830Z,8.60
2023-02-02T11:53:07.227Z,8.60
2023-02-02T11:55:36.759Z,8.70
2023-02-02T11:58:27.686Z,8.70
2023-02-02T12:03:35.673Z,8.70
2023-02-02T12:06:19.994Z,8.70
2023-02-02T12:08:48.718Z,8.70
2023-02-02T12:11:29.685Z,8.70
2023-02-02T12:14:12.837Z,8.70
2023-02-02T12:16:54.608Z,8.70
2023-02-02T12:19:46.275Z,8.70
2023-02-02T12:22:28.678Z,8.70
2023-02-02T12:25:02.726Z,8.80
2023-02-02T12:27:40.262Z,8.80
2023-02-02T12:30:21.047Z,8.80
2023-02-02T12:33:07.547Z,8.90
2023-02-02T12:35:54.825Z,9.00
2023-02-02T12:38:37.546Z,9.10
2023-02-02T12:41:23.389Z,9.20
2023-02-02T12:43:58.405Z,9.20
2023-02-02T12:46:45.668Z,9.30
2023-02-02T12:49:33.547Z,9.40
2023-02-02T12:52:18.193Z,9.40
2023-02-02T12:55:13.364Z,9.40
2023-02-02T12:57:51.859Z,9.40
2023-02-02T13:00:50.287Z,9.40
2023-02-02T13:03:29.923Z,9.40
2023-02-02T13:06:17.015Z,9.50
2023-02-02T13:08:54.403Z,9.50
2023-02-02T13:11:33.637Z,9.60
2023-02-02T13:14:09.537Z,9.60
2023-02-02T13:16:41.214Z,9.70
2023-02-02T13:19:15.125Z,9.70
2023-02-02T13:21:44.381Z,9.90
2023-02-02T13:24:20.697Z,10.20
2023-02-02T13:26:50.698Z,10.40
2023-02-02T13:29:31.315Z,10.60
2023-02-02T13:32:03.820Z,11.00
2023-02-02T13:34:43.040Z,11.60
2023-02-02T13:37:18.936Z,12.20
2023-02-02T13:39:50.313Z,13.00
2023-02-02T13:42:27.963Z,13.80
2023-02-02T13:45:02.451Z,14.90
2023-02-02T13:47:37.895Z,16.40
2023-02-02T13:50:12.307Z,18.70
2023-02-02T13:53:02.462Z,19.70
2023-02-02T13:55:55.156Z,22.90
2023-02-02T13:58:52.021Z,23.30
2023-02-02T14:01:22.070Z,22.90
2023-02-02T14:03:55.329Z,21.00
2023-02-02T14:06:25.952Z,19.70
2023-02-02T14:08:57.616Z,20.60
2023-02-02T14:11:30.372Z,20.80
2023-02-02T14:14:25.734Z,21.20
2023-02-02T14:16:56.210Z,21.00
2023-02-02T14:19:55.963Z,19.90
2023-02-02T14:22:45.493Z,20.50
2023-02-02T14:26:05.082Z,21.20
2023-02-02T14:28:46.169Z,20.10
2023-02-02T14:31:54.689Z,19.20
2023-02-02T14:34:35.230Z,18.50
2023-02-02T14:37:36.905Z,19.00
2023-02-02T14:40:26.641Z,18.60
2023-02-02T14:43:23.757Z,17.60
2023-02-02T14:46:48.267Z,16.80
2023-02-02T14:49:25.743Z,16.00
2023-02-02T14:51:57.304Z,15.40
2023-02-02T14:54:33.294Z,15.10
2023-02-02T14:57:06.109Z,15.10
2023-02-02T14:59:38.636Z,15.50
2023-02-02T15:02:20.087Z,15.70
2023-02-02T15:04:50.583Z,15.40
2023-02-02T15:07:54.944Z,14.80
2023-02-02T15:10:59.525Z,14.20
2023-02-02T15:13:30.450Z,13.70
2023-02-02T15:16:08.422Z,13.40
2023-02-02T15:18:44.820Z,13.00
2023-02-02T15:21:22.156Z,12.80
2023-02-02T15:23:51.330Z,12.50
2023-02-02T15:26:25.065Z,12.20
2023-02-02T15:28:58.398Z,12.00
2023-02-02T15:31:33.957Z,11.70
2023-02-02T15:34:06.713Z,11.50
2023-02-02T15:36:40.502Z,11.30
2023-02-02T15:39:20.824Z,11.10
2023-02-02T15:42:11.004Z,10.90
2023-02-02T15:44:39.813Z,10.70
2023-02-02T15:47:13.710Z,10.50
2023-02-02T15:49:42.388Z,10.30
2023-02-02T15:52:18.299Z,10.10
2023-02-02T15:54:53.248Z,9.90
2023-02-02T15:57:40.668Z,9.80
2023-02-02T16:00:27.496Z,9.60
2023-02-02T16:03:01.838Z,9.50
2023-02-02T16:05:47.624Z,9.40
2023-02-02T16:08:20.954Z,9.30
2023-02-02T16:10:52.206Z,9.20
2023-02-02T16:13:26.554Z,9.10
2023-02-02T16:15:59.646Z,8.90
2023-02-02T16:18:28.140Z,8.90
2023-02-02T16:20:58.818Z,8.80
2023-02-02T16:23:32.334Z,8.70
2023-02-02T16:26:03.751Z,8.60
2023-02-02T16:28:33.210Z,8.60
2023-02-02T16:31:02.857Z,8.50
2023-02-02T16:33:36.314Z,8.30
2023-02-02T16:36:12.336Z,8.30
2023-02-02T16:38:42.306Z,8.20
2023-02-02T16:41:12.773Z,8.20
2023-02-02T16:43:42.537Z,8.10
2023-02-02T16:46:12.732Z,8.10
2023-02-02T16:48:44.128Z,8.00
2023-02-02T16:51:27.576Z,7.90
2023-02-02T16:54:12.203Z,7.90
2023-02-02T16:56:42.784Z,7.80
2023-02-02T16:59:19.636Z,7.80
2023-02-02T17:01:51.747Z,7.70
2023-02-02T17:04:24.902Z,7.70
2023-02-02T17:06:54.094Z,7.70
2023-02-02T17:09:35.702Z,7.60
2023-02-02T17:12:14.244Z,7.60
2023-02-02T17:14:53.228Z,7.60
2023-02-02T17:17:21.995Z,7.50
2023-02-02T17:19:50.496Z,7.50
2023-02-02T17:22:22.224Z,7.50
2023-02-02T17:24:53.506Z,7.40
2023-02-02T17:27:28.601Z,7.40
2023-02-02T17:29:57.828Z,7.30
2023-02-02T17:32:27.012Z,7.40
2023-02-02T17:34:55.304Z,7.30
2023-02-02T17:37:23.703Z,7.30
2023-02-02T17:39:54.101Z,7.20
2023-02-02T17:42:26.460Z,7.20
2023-02-02T17:44:55.201Z,7.10
2023-02-02T17:47:25.754Z,7.10
2023-02-02T17:49:54.039Z,7.10
2023-02-02T17:52:22.373Z,7.10
2023-02-02T17:54:52.155Z,7.00
2023-02-02T17:57:20.616Z,7.00
2023-02-02T17:59:48.947Z,7.10
2023-02-02T18:02:18.279Z,7.00
2023-02-02T18:04:49.827Z,7.00
2023-02-02T18:07:18.110Z,7.00
2023-02-02T18:09:46.421Z,6.90
2023-02-02T18:12:16.327Z,6.80
2023-02-02T18:14:44.705Z,6.80
2023-02-02T18:17:15.788Z,6.80
2023-02-02T18:19:45.225Z,6.80
2023-02-02T18:22:14.525Z,6.70
2023-02-02T18:24:42.856Z,6.70
2023-02-02T18:27:11.183Z,6.60
2023-02-02T18:29:40.985Z,6.60
2023-02-02T18:32:09.716Z,6.60
2023-02-02T18:34:38.241Z,6.60
2023-02-02T18:37:06.623Z,6.50
2023-02-02T18:39:38.267Z,6.50
2023-02-02T18:42:10.849Z,6.50
2023-02-02T18:44:40.507Z,6.50
2023-02-02T18:47:08.816Z,6.50
2023-02-02T18:49:37.100Z,6.50
2023-02-02T18:52:05.504Z,6.40
2023-02-02T18:54:35.727Z,6.40
2023-02-02T18:57:04.102Z,6.40
2023-02-02T18:59:32.737Z,6.40
2023-02-02T19:02:02.616Z,6.40
2023-02-02T19:04:30.999Z,6.40
2023-02-02T19:07:16.593Z,6.40
2023-02-02T19:09:47.897Z,6.40
2023-02-02T19:12:17.104Z,6.40
2023-02-02T19:14:45.516Z,6.40
2023-02-02T19:17:24.563Z,6.40
2023-02-02T19:19:53.120Z,6.40
2023-02-02T19:22:22.722Z,6.40
2023-02-02T19:24:51.866Z,6.40
2023-02-02T19:27:23.406Z,6.40
2023-02-02T19:29:52.911Z,6.30
2023-02-02T19:32:25.020Z,6.30
2023-02-02T19:34:55.246Z,6.30
2023-02-02T19:37:26.429Z,6.30
2023-02-02T19:39:56.840Z,6.30
2023-02-02T19:42:25.588Z,6.20
2023-02-02T19:44:54.526Z,6.20
2023-02-02T19:47:31.130Z,6.20
2023-02-02T19:50:00.837Z,6.20
2023-02-02T19:52:32.598Z,6.20
2023-02-02T19:55:00.889Z,6.20
2023-02-02T19:57:36.815Z,6.20
2023-02-02T20:00:20.710Z,6.20
2023-02-02T20:03:01.447Z,6.30
2023-02-02T20:05:34.198Z,6.20
2023-02-02T20:08:06.415Z,6.20
2023-02-02T20:10:39.584Z,6.20
2023-02-02T20:13:19.812Z,6.30
2023-02-02T20:15:50.272Z,6.30
2023-02-02T20:18:22.997Z,6.20
2023-02-02T20:20:54.841Z,6.30
2023-02-02T20:23:40.272Z,6.20
2023-02-02T20:26:32.885Z,6.20
2023-02-02T20:29:03.609Z,6.10
2023-02-02T20:31:39.132Z,6.10
2023-02-02T20:34:22.118Z,6.10
2023-02-02T20:36:50.628Z,6.10
2023-02-02T20:39:30.164Z,6.10
2023-02-02T20:41:58.942Z,6.10
2023-02-02T20:44:29.060Z,6.00
2023-02-02T20:46:58.236Z,6.00
2023-02-02T20:49:28.377Z,6.00
2023-02-02T20:51:57.610Z,6.00
2023-02-02T20:54:26.708Z,6.00
2023-02-02T20:56:55.504Z,5.90
2023-02-02T20:59:23.957Z,5.90
2023-02-02T21:01:53.087Z,5.80
2023-02-02T21:04:22.441Z,5.80
2023-02-02T21:06:52.191Z,5.80
2023-02-02T21:09:20.558Z,5.80
2023-02-02T21:11:49.177Z,5.80
2023-02-02T21:14:17.454Z,5.90
2023-02-02T21:16:45.881Z,5.90
2023-02-02T21:19:14.194Z,5.90
2023-02-02T21:21:42.528Z,5.90
2023-02-02T21:24:14.984Z,5.90
2023-02-02T21:26:43.257Z,5.90
2023-02-02T21:29:11.681Z,5.90
2023-02-02T21:31:40.267Z,5.90
2023-02-02T21:34:09.053Z,5.90
2023-02-02T21:36:38.770Z,5.90
2023-02-02T21:39:17.153Z,5.90
2023-02-02T21:41:46.805Z,5.80
2023-02-02T21:44:22.539Z,5.80
2023-02-02T21:46:53.069Z,5.80
2023-02-02T21:49:26.652Z,5.70
2023-02-02T21:52:00.313Z,5.70
2023-02-02T21:54:37.784Z,5.80
2023-02-02T21:57:15.385Z,5.80
2023-02-02T21:59:46.700Z,5.80
2023-02-02T22:02:41.337Z,5.80
2023-02-02T22:05:20.078Z,5.80
2023-02-02T22:07:49.685Z,5.80
2023-02-02T22:10:35.879Z,5.80
2023-02-02T22:13:13.457Z,5.80
2023-02-02T22:15:46.059Z,5.70
2023-02-02T22:18:19.140Z,5.70
2023-02-02T22:20:49.770Z,5.60
2023-02-02T22:23:20.897Z,5.70
2023-02-02T22:25:53.433Z,5.70
2023-02-02T22:28:23.741Z,5.60
2023-02-02T22:30:53.307Z,5.60
2023-02-02T22:33:22.510Z,5.60
2023-02-02T22:35:50.824Z,5.60
2023-02-02T22:38:20.615Z,5.60
2023-02-02T22:40:51.513Z,5.60
2023-02-02T22:43:21.059Z,5.60
2023-02-02T22:45:49.926Z,5.60
2023-02-02T22:48:18.874Z,5.60
2023-02-02T22:50:47.304Z,5.50
2023-02-02T22:53:15.697Z,5.50
2023-02-02T22:55:44.406Z,5.50
2023-02-02T22:58:14.099Z,5.50
2023-02-02T23:00:42.410Z,5.50
2023-02-02T23:03:10.844Z,5.50
2023-02-02T23:05:39.215Z,5.50
2023-02-02T23:08:07.591Z,5.50
2023-02-02T23:10:36.075Z,5.50
2023-02-02T23:13:06.135Z,5.50
2023-02-02T23:15:36.516Z,5.50
2023-02-02T23:18:05.270Z,5.50
2023-02-02T23:20:33.612Z,5.50
2023-02-02T23:23:01.951Z,5.50
2023-02-02T23:25:30.261Z,5.50
2023-02-02T23:27:58.622Z,5.50
2023-02-02T23:30:27.328Z,5.50
2023-02-02T23:32:57.212Z,5.50
2023-02-02T23:35:25.472Z,5.50
2023-02-02T23:38:14.767Z,5.40
2023-02-02T23:40:45.171Z,5.40
2023-02-02T23:43:13.476Z,5.40
2023-02-02T23:45:42.137Z,5.40
2023-02-02T23:48:13.193Z,5.40
2023-02-02T23:50:41.803Z,5.40
2023-02-02T23:53:12.025Z,5.40
2023-02-02T23:55:51.041Z,5.40
2023-02-02T23:58:21.368Z,5.30
